sensor_id;sensor_type;location;lat;lon;timestamp;pressure;altitude;pressure_sealevel;temperature;humidity
39954;BME280;25631;51.516;-0.470;2023-04-28T00:00:15;100590.28;;;11.84;43.86
39954;BME280;25631;51.516;-0.470;2023-04-28T00:02:51;100588.48;;;11.93;43.90
39954;BME280;25631;51.516;-0.470;2023-04-28T00:05:28;100583.78;;;11.73;43.90
39954;BME280;25631;51.516;-0.470;2023-04-28T00:08:04;100580.96;;;11.74;43.95
39954;BME280;25631;51.516;-0.470;2023-04-28T00:10:40;100572.80;;;11.73;43.96
39954;BME280;25631;51.516;-0.470;2023-04-28T00:13:17;100564.57;;;11.91;44.01
39954;BME280;25631;51.516;-0.470;2023-04-28T00:15:53;100559.92;;;11.71;44.03
39954;BME280;25631;51.516;-0.470;2023-04-28T00:18:30;100555.88;;;11.72;44.07
39954;BME280;25631;51.516;-0.470;2023-04-28T00:21:06;100552.60;;;11.76;44.18
39954;BME280;25631;51.516;-0.470;2023-04-28T00:23:42;100551.38;;;11.74;44.22
39954;BME280;25631;51.516;-0.470;2023-04-28T00:26:19;100548.49;;;11.71;44.31
39954;BME280;25631;51.516;-0.470;2023-04-28T00:28:56;100543.36;;;11.65;44.29
39954;BME280;25631;51.516;-0.470;2023-04-28T00:31:32;100544.83;;;11.74;44.39
39954;BME280;25631;51.516;-0.470;2023-04-28T00:34:08;100537.86;;;11.54;44.45
39954;BME280;25631;51.516;-0.470;2023-04-28T00:36:45;100536.98;;;11.98;44.44
39954;BME280;25631;51.516;-0.470;2023-04-28T00:39:21;100537.90;;;11.76;44.52
39954;BME280;25631;51.516;-0.470;2023-04-28T00:41:58;100538.92;;;11.79;44.68
39954;BME280;25631;51.516;-0.470;2023-04-28T00:44:34;100541.35;;;11.49;44.84
39954;BME280;25631;51.516;-0.470;2023-04-28T00:47:10;100540.23;;;11.89;44.87
39954;BME280;25631;51.516;-0.470;2023-04-28T00:49:48;100537.25;;;11.58;44.87
39954;BME280;25631;51.516;-0.470;2023-04-28T00:52:24;100536.54;;;11.85;44.83
39954;BME280;25631;51.516;-0.470;2023-04-28T00:55:01;100536.91;;;11.72;44.85
39954;BME280;25631;51.516;-0.470;2023-04-28T00:57:39;100537.10;;;11.61;44.91
39954;BME280;25631;51.516;-0.470;2023-04-28T01:00:16;100541.63;;;11.67;45.02
39954;BME280;25631;51.516;-0.470;2023-04-28T01:02:54;100538.40;;;11.72;45.17
39954;BME280;25631;51.516;-0.470;2023-04-28T01:05:32;100533.68;;;11.74;45.11
39954;BME280;25631;51.516;-0.470;2023-04-28T01:08:10;100533.52;;;11.75;45.15
39954;BME280;25631;51.516;-0.470;2023-04-28T01:10:46;100532.21;;;11.41;45.37
39954;BME280;25631;51.516;-0.470;2023-04-28T01:13:23;100531.80;;;11.48;45.28
39954;BME280;25631;51.516;-0.470;2023-04-28T01:15:59;100528.71;;;11.63;45.45
39954;BME280;25631;51.516;-0.470;2023-04-28T01:18:36;100529.08;;;11.63;45.44
39954;BME280;25631;51.516;-0.470;2023-04-28T01:21:13;100529.32;;;11.80;45.54
39954;BME280;25631;51.516;-0.470;2023-04-28T01:23:49;100530.81;;;11.52;45.54
39954;BME280;25631;51.516;-0.470;2023-04-28T01:26:26;100528.17;;;11.55;45.54
39954;BME280;25631;51.516;-0.470;2023-04-28T01:29:02;100526.72;;;11.71;45.50
39954;BME280;25631;51.516;-0.470;2023-04-28T01:31:39;100522.42;;;11.67;45.61
39954;BME280;25631;51.516;-0.470;2023-04-28T01:34:15;100517.89;;;11.51;45.59
39954;BME280;25631;51.516;-0.470;2023-04-28T01:36:52;100513.74;;;11.89;45.57
39954;BME280;25631;51.516;-0.470;2023-04-28T01:39:28;100513.93;;;11.58;45.64
39954;BME280;25631;51.516;-0.470;2023-04-28T01:42:04;100514.60;;;11.71;45.80
39954;BME280;25631;51.516;-0.470;2023-04-28T01:44:41;100516.91;;;11.52;45.74
39954;BME280;25631;51.516;-0.470;2023-04-28T01:47:17;100517.51;;;11.52;45.95
39954;BME280;25631;51.516;-0.470;2023-04-28T01:49:54;100516.94;;;11.52;45.94
39954;BME280;25631;51.516;-0.470;2023-04-28T01:52:30;100518.67;;;11.40;46.02
39954;BME280;25631;51.516;-0.470;2023-04-28T01:55:07;100518.98;;;11.78;45.98
39954;BME280;25631;51.516;-0.470;2023-04-28T01:57:44;100520.59;;;11.57;46.21
39954;BME280;25631;51.516;-0.470;2023-04-28T02:00:20;100517.75;;;11.40;46.38
39954;BME280;25631;51.516;-0.470;2023-04-28T02:02:57;100521.96;;;11.36;46.51
39954;BME280;25631;51.516;-0.470;2023-04-28T02:05:33;100523.07;;;11.29;46.57
39954;BME280;25631;51.516;-0.470;2023-04-28T02:08:10;100521.04;;;11.40;46.53
39954;BME280;25631;51.516;-0.470;2023-04-28T02:10:46;100524.67;;;11.38;46.71
39954;BME280;25631;51.516;-0.470;2023-04-28T02:13:23;100524.78;;;11.43;46.62
39954;BME280;25631;51.516;-0.470;2023-04-28T02:15:59;100526.17;;;11.62;46.55
39954;BME280;25631;51.516;-0.470;2023-04-28T02:18:36;100529.78;;;11.39;46.64
39954;BME280;25631;51.516;-0.470;2023-04-28T02:21:13;100533.23;;;11.55;46.89
39954;BME280;25631;51.516;-0.470;2023-04-28T02:23:50;100530.66;;;11.33;47.20
39954;BME280;25631;51.516;-0.470;2023-04-28T02:26:26;100534.40;;;11.69;47.55
39954;BME280;25631;51.516;-0.470;2023-04-28T02:29:03;100536.42;;;11.12;47.73
39954;BME280;25631;51.516;-0.470;2023-04-28T02:31:40;100539.48;;;11.43;47.83
39954;BME280;25631;51.516;-0.470;2023-04-28T02:34:17;100538.56;;;11.30;47.76
39954;BME280;25631;51.516;-0.470;2023-04-28T02:36:53;100533.75;;;11.61;47.65
39954;BME280;25631;51.516;-0.470;2023-04-28T02:39:29;100533.14;;;11.45;47.63
39954;BME280;25631;51.516;-0.470;2023-04-28T02:42:06;100532.10;;;11.32;47.61
39954;BME280;25631;51.516;-0.470;2023-04-28T02:44:43;100536.73;;;11.30;47.68
39954;BME280;25631;51.516;-0.470;2023-04-28T02:47:20;100534.70;;;11.54;47.51
39954;BME280;25631;51.516;-0.470;2023-04-28T02:49:56;100532.48;;;11.45;47.42
39954;BME280;25631;51.516;-0.470;2023-04-28T02:52:33;100535.85;;;11.80;47.59
39954;BME280;25631;51.516;-0.470;2023-04-28T02:55:09;100536.88;;;11.66;47.45
39954;BME280;25631;51.516;-0.470;2023-04-28T02:57:46;100536.37;;;11.85;47.37
39954;BME280;25631;51.516;-0.470;2023-04-28T03:00:23;100534.95;;;11.50;47.62
39954;BME280;25631;51.516;-0.470;2023-04-28T03:02:59;100533.18;;;11.57;47.47
39954;BME280;25631;51.516;-0.470;2023-04-28T03:05:36;100530.19;;;11.59;47.39
39954;BME280;25631;51.516;-0.470;2023-04-28T03:08:12;100527.40;;;11.56;47.45
39954;BME280;25631;51.516;-0.470;2023-04-28T03:10:49;100527.49;;;11.57;47.43
39954;BME280;25631;51.516;-0.470;2023-04-28T03:13:25;100526.27;;;11.43;47.50
39954;BME280;25631;51.516;-0.470;2023-04-28T03:16:02;100527.82;;;11.36;47.56
39954;BME280;25631;51.516;-0.470;2023-04-28T03:18:39;100530.58;;;11.44;47.60
39954;BME280;25631;51.516;-0.470;2023-04-28T03:21:15;100529.31;;;11.62;47.78
39954;BME280;25631;51.516;-0.470;2023-04-28T03:23:51;100531.51;;;11.36;47.77
39954;BME280;25631;51.516;-0.470;2023-04-28T03:26:28;100533.51;;;11.46;47.62
39954;BME280;25631;51.516;-0.470;2023-04-28T03:29:04;100531.88;;;11.39;47.57
39954;BME280;25631;51.516;-0.470;2023-04-28T03:31:41;100535.15;;;11.61;47.57
39954;BME280;25631;51.516;-0.470;2023-04-28T03:34:17;100537.26;;;11.50;47.53
39954;BME280;25631;51.516;-0.470;2023-04-28T03:36:54;100532.46;;;11.44;47.41
39954;BME280;25631;51.516;-0.470;2023-04-28T03:39:31;100536.19;;;11.56;47.38
39954;BME280;25631;51.516;-0.470;2023-04-28T03:42:08;100535.29;;;11.38;47.32
39954;BME280;25631;51.516;-0.470;2023-04-28T03:44:44;100536.49;;;11.73;47.25
39954;BME280;25631;51.516;-0.470;2023-04-28T03:47:21;100537.95;;;11.60;47.25
39954;BME280;25631;51.516;-0.470;2023-04-28T03:49:58;100535.37;;;11.87;47.10
39954;BME280;25631;51.516;-0.470;2023-04-28T03:52:34;100534.18;;;11.48;47.05
39954;BME280;25631;51.516;-0.470;2023-04-28T03:55:10;100536.49;;;11.67;47.12
39954;BME280;25631;51.516;-0.470;2023-04-28T03:57:47;100540.18;;;11.45;47.17
39954;BME280;25631;51.516;-0.470;2023-04-28T04:00:23;100541.97;;;11.17;47.21
39954;BME280;25631;51.516;-0.470;2023-04-28T04:03:00;100544.55;;;11.60;47.07
39954;BME280;25631;51.516;-0.470;2023-04-28T04:05:39;100543.22;;;11.58;46.98
39954;BME280;25631;51.516;-0.470;2023-04-28T04:08:16;100546.89;;;11.35;47.04
39954;BME280;25631;51.516;-0.470;2023-04-28T04:10:52;100549.69;;;11.71;46.78
39954;BME280;25631;51.516;-0.470;2023-04-28T04:13:29;100551.14;;;11.69;46.73
39954;BME280;25631;51.516;-0.470;2023-04-28T04:16:06;100549.48;;;11.76;46.78
39954;BME280;25631;51.516;-0.470;2023-04-28T04:18:43;100551.40;;;11.75;46.65
39954;BME280;25631;51.516;-0.470;2023-04-28T04:21:19;100555.14;;;11.48;46.64
39954;BME280;25631;51.516;-0.470;2023-04-28T04:23:56;100557.70;;;11.59;46.77
39954;BME280;25631;51.516;-0.470;2023-04-28T04:26:32;100558.19;;;11.40;46.72
39954;BME280;25631;51.516;-0.470;2023-04-28T04:29:09;100554.36;;;11.77;46.63
39954;BME280;25631;51.516;-0.470;2023-04-28T04:31:48;100558.07;;;11.64;46.59
39954;BME280;25631;51.516;-0.470;2023-04-28T04:34:24;100557.30;;;11.65;46.59
39954;BME280;25631;51.516;-0.470;2023-04-28T04:37:01;100559.04;;;11.43;46.56
39954;BME280;25631;51.516;-0.470;2023-04-28T04:39:37;100560.39;;;11.44;46.65
39954;BME280;25631;51.516;-0.470;2023-04-28T04:42:14;100565.01;;;11.27;46.92
39954;BME280;25631;51.516;-0.470;2023-04-28T04:44:50;100565.86;;;11.16;47.21
39954;BME280;25631;51.516;-0.470;2023-04-28T04:47:26;100569.58;;;11.41;47.03
39954;BME280;25631;51.516;-0.470;2023-04-28T04:50:04;100570.54;;;11.38;46.86
39954;BME280;25631;51.516;-0.470;2023-04-28T04:52:40;100571.57;;;11.43;46.84
39954;BME280;25631;51.516;-0.470;2023-04-28T04:55:17;100573.85;;;11.20;47.00
39954;BME280;25631;51.516;-0.470;2023-04-28T04:57:54;100580.49;;;11.40;47.17
39954;BME280;25631;51.516;-0.470;2023-04-28T05:00:30;100580.03;;;11.44;47.03
39954;BME280;25631;51.516;-0.470;2023-04-28T05:03:07;100578.17;;;11.37;46.86
39954;BME280;25631;51.516;-0.470;2023-04-28T05:05:43;100583.46;;;11.63;46.72
39954;BME280;25631;51.516;-0.470;2023-04-28T05:08:20;100588.21;;;11.74;46.75
39954;BME280;25631;51.516;-0.470;2023-04-28T05:10:56;100582.49;;;11.50;46.68
39954;BME280;25631;51.516;-0.470;2023-04-28T05:13:33;100586.00;;;11.59;46.47
39954;BME280;25631;51.516;-0.470;2023-04-28T05:16:09;100584.69;;;11.35;46.57
39954;BME280;25631;51.516;-0.470;2023-04-28T05:18:46;100579.31;;;11.50;46.50
39954;BME280;25631;51.516;-0.470;2023-04-28T05:21:23;100587.47;;;11.69;46.61
39954;BME280;25631;51.516;-0.470;2023-04-28T05:23:59;100590.40;;;11.41;46.75
39954;BME280;25631;51.516;-0.470;2023-04-28T05:26:35;100590.31;;;11.32;46.57
39954;BME280;25631;51.516;-0.470;2023-04-28T05:29:12;100593.35;;;11.64;46.49
39954;BME280;25631;51.516;-0.470;2023-04-28T05:31:48;100601.39;;;11.62;46.28
39954;BME280;25631;51.516;-0.470;2023-04-28T05:34:24;100600.18;;;11.68;46.34
39954;BME280;25631;51.516;-0.470;2023-04-28T05:37:01;100601.86;;;11.52;46.45
39954;BME280;25631;51.516;-0.470;2023-04-28T05:39:38;100602.13;;;11.74;46.41
39954;BME280;25631;51.516;-0.470;2023-04-28T05:42:14;100610.00;;;11.17;46.62
39954;BME280;25631;51.516;-0.470;2023-04-28T05:44:50;100613.05;;;11.35;46.63
39954;BME280;25631;51.516;-0.470;2023-04-28T05:47:27;100612.76;;;11.41;46.80
39954;BME280;25631;51.516;-0.470;2023-04-28T05:50:04;100613.46;;;11.54;46.82
39954;BME280;25631;51.516;-0.470;2023-04-28T05:52:41;100618.04;;;11.37;46.70
39954;BME280;25631;51.516;-0.470;2023-04-28T05:55:17;100621.94;;;11.57;46.79
39954;BME280;25631;51.516;-0.470;2023-04-28T05:57:54;100626.57;;;11.70;46.71
39954;BME280;25631;51.516;-0.470;2023-04-28T06:00:31;100627.44;;;11.45;46.94
39954;BME280;25631;51.516;-0.470;2023-04-28T06:03:07;100632.80;;;11.26;47.21
39954;BME280;25631;51.516;-0.470;2023-04-28T06:05:44;100631.57;;;11.57;46.83
39954;BME280;25631;51.516;-0.470;2023-04-28T06:08:20;100638.74;;;11.59;46.80
39954;BME280;25631;51.516;-0.470;2023-04-28T06:10:57;100639.74;;;11.62;46.79
39954;BME280;25631;51.516;-0.470;2023-04-28T06:13:33;100642.25;;;11.53;46.84
39954;BME280;25631;51.516;-0.470;2023-04-28T06:16:10;100643.19;;;11.67;46.62
39954;BME280;25631;51.516;-0.470;2023-04-28T06:18:47;100644.78;;;11.75;46.65
39954;BME280;25631;51.516;-0.470;2023-04-28T06:21:23;100645.11;;;11.74;46.67
39954;BME280;25631;51.516;-0.470;2023-04-28T06:24:00;100646.11;;;11.75;46.73
39954;BME280;25631;51.516;-0.470;2023-04-28T06:26:36;100643.94;;;11.39;46.84
39954;BME280;25631;51.516;-0.470;2023-04-28T06:29:13;100647.34;;;11.55;46.95
39954;BME280;25631;51.516;-0.470;2023-04-28T06:31:49;100648.47;;;11.55;46.83
39954;BME280;25631;51.516;-0.470;2023-04-28T06:34:25;100652.96;;;11.66;46.89
39954;BME280;25631;51.516;-0.470;2023-04-28T06:37:02;100657.87;;;11.55;47.01
39954;BME280;25631;51.516;-0.470;2023-04-28T06:39:38;100661.05;;;11.54;46.99
39954;BME280;25631;51.516;-0.470;2023-04-28T06:42:15;100659.50;;;11.49;47.05
39954;BME280;25631;51.516;-0.470;2023-04-28T06:44:51;100660.97;;;11.57;47.06
39954;BME280;25631;51.516;-0.470;2023-04-28T06:47:28;100661.58;;;11.69;46.96
39954;BME280;25631;51.516;-0.470;2023-04-28T06:50:08;100663.07;;;11.61;46.84
39954;BME280;25631;51.516;-0.470;2023-04-28T06:52:45;100666.16;;;12.22;46.86
39954;BME280;25631;51.516;-0.470;2023-04-28T06:55:21;100667.80;;;11.60;46.96
39954;BME280;25631;51.516;-0.470;2023-04-28T06:57:57;100668.18;;;11.74;46.77
39954;BME280;25631;51.516;-0.470;2023-04-28T07:00:34;100671.69;;;11.94;46.81
39954;BME280;25631;51.516;-0.470;2023-04-28T07:03:11;100675.57;;;11.89;46.99
39954;BME280;25631;51.516;-0.470;2023-04-28T07:05:47;100679.78;;;11.86;46.95
39954;BME280;25631;51.516;-0.470;2023-04-28T07:08:24;100679.13;;;11.96;46.80
39954;BME280;25631;51.516;-0.470;2023-04-28T07:11:00;100682.01;;;12.04;46.79
39954;BME280;25631;51.516;-0.470;2023-04-28T07:13:37;100683.51;;;11.82;46.92
39954;BME280;25631;51.516;-0.470;2023-04-28T07:16:13;100684.62;;;12.16;46.91
39954;BME280;25631;51.516;-0.470;2023-04-28T07:18:50;100686.22;;;12.03;47.06
39954;BME280;25631;51.516;-0.470;2023-04-28T07:21:26;100685.92;;;12.11;47.32
39954;BME280;25631;51.516;-0.470;2023-04-28T07:24:04;100687.42;;;11.98;47.52
39954;BME280;25631;51.516;-0.470;2023-04-28T07:26:40;100687.00;;;12.03;47.78
39954;BME280;25631;51.516;-0.470;2023-04-28T07:29:17;100688.49;;;11.85;47.55
39954;BME280;25631;51.516;-0.470;2023-04-28T07:31:53;100692.49;;;11.80;47.45
39954;BME280;25631;51.516;-0.470;2023-04-28T07:34:30;100695.37;;;11.70;47.35
39954;BME280;25631;51.516;-0.470;2023-04-28T07:37:06;100699.37;;;12.19;47.07
39954;BME280;25631;51.516;-0.470;2023-04-28T07:39:43;100703.20;;;12.19;46.89
39954;BME280;25631;51.516;-0.470;2023-04-28T07:42:19;100706.24;;;12.13;46.84
39954;BME280;25631;51.516;-0.470;2023-04-28T07:44:56;100708.21;;;12.52;46.61
39954;BME280;25631;51.516;-0.470;2023-04-28T07:47:32;100707.52;;;12.33;46.58
39954;BME280;25631;51.516;-0.470;2023-04-28T07:50:10;100715.15;;;12.02;46.04
39954;BME280;25631;51.516;-0.470;2023-04-28T07:52:47;100720.13;;;12.14;46.11
39954;BME280;25631;51.516;-0.470;2023-04-28T07:55:24;100725.37;;;12.32;46.24
39954;BME280;25631;51.516;-0.470;2023-04-28T07:58:01;100728.23;;;12.29;46.06
39954;BME280;25631;51.516;-0.470;2023-04-28T08:00:37;100737.59;;;12.41;45.87
39954;BME280;25631;51.516;-0.470;2023-04-28T08:03:14;100732.82;;;12.59;45.79
39954;BME280;25631;51.516;-0.470;2023-04-28T08:05:50;100731.52;;;12.56;45.77
39954;BME280;25631;51.516;-0.470;2023-04-28T08:08:27;100728.13;;;12.64;45.77
39954;BME280;25631;51.516;-0.470;2023-04-28T08:11:03;100733.23;;;12.63;45.24
39954;BME280;25631;51.516;-0.470;2023-04-28T08:13:39;100741.21;;;12.72;44.95
39954;BME280;25631;51.516;-0.470;2023-04-28T08:16:16;100737.31;;;12.86;45.03
39954;BME280;25631;51.516;-0.470;2023-04-28T08:18:52;100740.68;;;13.11;44.62
39954;BME280;25631;51.516;-0.470;2023-04-28T08:21:29;100740.83;;;13.14;44.62
39954;BME280;25631;51.516;-0.470;2023-04-28T08:24:05;100740.60;;;12.83;44.52
39954;BME280;25631;51.516;-0.470;2023-04-28T08:26:42;100739.73;;;12.81;44.71
39954;BME280;25631;51.516;-0.470;2023-04-28T08:29:19;100739.15;;;13.06;44.69
39954;BME280;25631;51.516;-0.470;2023-04-28T08:31:55;100744.36;;;12.89;44.47
39954;BME280;25631;51.516;-0.470;2023-04-28T08:34:32;100746.29;;;12.92;44.19
39954;BME280;25631;51.516;-0.470;2023-04-28T08:37:08;100755.52;;;13.01;44.53
39954;BME280;25631;51.516;-0.470;2023-04-28T08:39:45;100763.48;;;13.07;44.37
39954;BME280;25631;51.516;-0.470;2023-04-28T08:42:21;100768.97;;;13.17;44.39
39954;BME280;25631;51.516;-0.470;2023-04-28T08:44:58;100766.57;;;12.92;44.48
39954;BME280;25631;51.516;-0.470;2023-04-28T08:47:36;100765.24;;;13.32;44.31
39954;BME280;25631;51.516;-0.470;2023-04-28T08:50:13;100764.11;;;13.26;44.54
39954;BME280;25631;51.516;-0.470;2023-04-28T08:52:51;100758.51;;;13.26;44.55
39954;BME280;25631;51.516;-0.470;2023-04-28T08:55:28;100756.37;;;12.94;44.59
39954;BME280;25631;51.516;-0.470;2023-04-28T08:58:05;100764.58;;;13.00;44.49
39954;BME280;25631;51.516;-0.470;2023-04-28T09:00:43;100760.08;;;13.20;44.20
39954;BME280;25631;51.516;-0.470;2023-04-28T09:03:19;100763.55;;;13.16;44.69
39954;BME280;25631;51.516;-0.470;2023-04-28T09:05:56;100766.88;;;13.38;44.46
39954;BME280;25631;51.516;-0.470;2023-04-28T09:08:33;100769.99;;;13.10;43.94
39954;BME280;25631;51.516;-0.470;2023-04-28T09:11:11;100775.97;;;13.58;43.24
39954;BME280;25631;51.516;-0.470;2023-04-28T09:13:48;100781.81;;;13.53;43.13
39954;BME280;25631;51.516;-0.470;2023-04-28T09:16:38;100782.70;;;13.57;43.18
39954;BME280;25631;51.516;-0.470;2023-04-28T09:19:16;100787.23;;;13.40;42.65
39954;BME280;25631;51.516;-0.470;2023-04-28T09:21:54;100788.31;;;13.97;42.40
39954;BME280;25631;51.516;-0.470;2023-04-28T09:24:33;100791.74;;;14.04;42.31
39954;BME280;25631;51.516;-0.470;2023-04-28T09:27:10;100788.76;;;14.05;42.19
39954;BME280;25631;51.516;-0.470;2023-04-28T09:29:52;100789.17;;;14.20;41.81
39954;BME280;25631;51.516;-0.470;2023-04-28T09:32:29;100794.48;;;13.76;41.55
39954;BME280;25631;51.516;-0.470;2023-04-28T09:35:06;100799.18;;;13.71;41.08
39954;BME280;25631;51.516;-0.470;2023-04-28T09:37:43;100802.44;;;13.98;41.01
39954;BME280;25631;51.516;-0.470;2023-04-28T09:40:19;100809.03;;;13.80;41.78
39954;BME280;25631;51.516;-0.470;2023-04-28T09:42:56;100810.20;;;13.39;41.99
39954;BME280;25631;51.516;-0.470;2023-04-28T09:45:38;100810.44;;;13.85;42.06
39954;BME280;25631;51.516;-0.470;2023-04-28T09:48:15;100811.98;;;14.03;42.02
39954;BME280;25631;51.516;-0.470;2023-04-28T09:50:52;100817.23;;;14.31;41.89
39954;BME280;25631;51.516;-0.470;2023-04-28T09:53:30;100820.17;;;14.15;41.70
39954;BME280;25631;51.516;-0.470;2023-04-28T09:56:07;100820.86;;;14.11;41.50
39954;BME280;25631;51.516;-0.470;2023-04-28T09:58:47;100828.06;;;14.27;41.36
39954;BME280;25631;51.516;-0.470;2023-04-28T10:01:31;100830.90;;;14.35;41.01
39954;BME280;25631;51.516;-0.470;2023-04-28T10:04:08;100831.32;;;14.38;41.48
39954;BME280;25631;51.516;-0.470;2023-04-28T10:06:44;100833.38;;;14.39;41.48
39954;BME280;25631;51.516;-0.470;2023-04-28T10:09:21;100833.59;;;14.44;41.11
39954;BME280;25631;51.516;-0.470;2023-04-28T10:11:58;100839.87;;;14.43;41.27
39954;BME280;25631;51.516;-0.470;2023-04-28T10:14:36;100843.92;;;14.38;41.14
39954;BME280;25631;51.516;-0.470;2023-04-28T10:17:12;100845.98;;;14.51;41.03
39954;BME280;25631;51.516;-0.470;2023-04-28T10:19:51;100846.98;;;14.66;41.12
39954;BME280;25631;51.516;-0.470;2023-04-28T10:22:42;100852.51;;;14.74;40.71
39954;BME280;25631;51.516;-0.470;2023-04-28T10:25:26;100849.69;;;14.43;40.64
39954;BME280;25631;51.516;-0.470;2023-04-28T10:28:05;100854.33;;;14.84;40.46
39954;BME280;25631;51.516;-0.470;2023-04-28T10:31:08;100855.25;;;14.69;40.44
39954;BME280;25631;51.516;-0.470;2023-04-28T10:33:44;100861.61;;;14.80;40.39
39954;BME280;25631;51.516;-0.470;2023-04-28T10:36:54;100863.53;;;14.63;40.46
39954;BME280;25631;51.516;-0.470;2023-04-28T10:39:30;100870.02;;;15.08;40.58
39954;BME280;25631;51.516;-0.470;2023-04-28T10:42:50;100873.10;;;14.73;40.11
39954;BME280;25631;51.516;-0.470;2023-04-28T10:46:02;100875.07;;;14.93;39.89
39954;BME280;25631;51.516;-0.470;2023-04-28T10:48:55;100877.99;;;15.10;39.82
39954;BME280;25631;51.516;-0.470;2023-04-28T10:51:33;100884.26;;;15.12;39.43
39954;BME280;25631;51.516;-0.470;2023-04-28T10:54:14;100885.20;;;15.32;39.31
39954;BME280;25631;51.516;-0.470;2023-04-28T10:57:23;100887.59;;;15.22;38.91
39954;BME280;25631;51.516;-0.470;2023-04-28T11:00:26;100891.39;;;15.05;38.72
39954;BME280;25631;51.516;-0.470;2023-04-28T11:03:03;100895.91;;;14.81;38.67
39954;BME280;25631;51.516;-0.470;2023-04-28T11:06:17;100898.25;;;14.87;38.80
39954;BME280;25631;51.516;-0.470;2023-04-28T11:08:55;100905.58;;;14.79;39.03
39954;BME280;25631;51.516;-0.470;2023-04-28T11:11:32;100907.51;;;14.86;39.49
39954;BME280;25631;51.516;-0.470;2023-04-28T11:14:41;100905.66;;;14.85;39.51
39954;BME280;25631;51.516;-0.470;2023-04-28T11:17:37;100910.97;;;15.03;39.29
39954;BME280;25631;51.516;-0.470;2023-04-28T11:20:18;100909.94;;;15.06;38.97
39954;BME280;25631;51.516;-0.470;2023-04-28T11:22:56;100904.47;;;14.87;38.65
39954;BME280;25631;51.516;-0.470;2023-04-28T11:25:53;100912.78;;;15.05;38.78
39954;BME280;25631;51.516;-0.470;2023-04-28T11:28:29;100911.37;;;15.11;38.41
39954;BME280;25631;51.516;-0.470;2023-04-28T11:31:14;100911.86;;;15.25;38.79
39954;BME280;25631;51.516;-0.470;2023-04-28T11:33:56;100914.24;;;15.11;38.47
39954;BME280;25631;51.516;-0.470;2023-04-28T11:36:34;100917.69;;;15.49;38.16
39954;BME280;25631;51.516;-0.470;2023-04-28T11:39:12;100914.51;;;15.70;38.12
39954;BME280;25631;51.516;-0.470;2023-04-28T11:41:48;100915.59;;;15.68;37.70
39954;BME280;25631;51.516;-0.470;2023-04-28T11:44:26;100923.60;;;15.81;37.92
39954;BME280;25631;51.516;-0.470;2023-04-28T11:47:05;100920.70;;;15.71;37.28
39954;BME280;25631;51.516;-0.470;2023-04-28T11:49:42;100924.66;;;15.82;37.21
39954;BME280;25631;51.516;-0.470;2023-04-28T11:52:20;100929.59;;;15.98;37.16
39954;BME280;25631;51.516;-0.470;2023-04-28T11:54:57;100926.64;;;15.85;37.17
39954;BME280;25631;51.516;-0.470;2023-04-28T11:57:34;100924.04;;;16.08;37.33
39954;BME280;25631;51.516;-0.470;2023-04-28T12:00:12;100927.88;;;15.84;36.81
39954;BME280;25631;51.516;-0.470;2023-04-28T12:02:49;100923.96;;;15.62;37.11
39954;BME280;25631;51.516;-0.470;2023-04-28T12:05:25;100926.17;;;15.83;36.97
39954;BME280;25631;51.516;-0.470;2023-04-28T12:08:02;100931.05;;;16.00;36.82
39954;BME280;25631;51.516;-0.470;2023-04-28T12:10:38;100932.05;;;16.02;36.78
39954;BME280;25631;51.516;-0.470;2023-04-28T12:13:15;100935.69;;;16.35;36.85
39954;BME280;25631;51.516;-0.470;2023-04-28T12:15:51;100934.48;;;16.27;37.02
39954;BME280;25631;51.516;-0.470;2023-04-28T12:18:28;100936.66;;;16.39;35.96
39954;BME280;25631;51.516;-0.470;2023-04-28T12:21:19;100936.14;;;16.73;36.01
39954;BME280;25631;51.516;-0.470;2023-04-28T12:23:56;100935.96;;;16.74;35.53
39954;BME280;25631;51.516;-0.470;2023-04-28T12:26:33;100947.05;;;17.26;35.68
39954;BME280;25631;51.516;-0.470;2023-04-28T12:29:10;100942.24;;;17.07;35.30
39954;BME280;25631;51.516;-0.470;2023-04-28T12:32:10;100943.58;;;17.15;34.83
39954;BME280;25631;51.516;-0.470;2023-04-28T12:34:47;100949.12;;;16.14;34.71
39954;BME280;25631;51.516;-0.470;2023-04-28T12:37:23;100958.44;;;16.75;34.88
39954;BME280;25631;51.516;-0.470;2023-04-28T12:40:00;100961.52;;;16.52;34.87
39954;BME280;25631;51.516;-0.470;2023-04-28T12:42:36;100963.15;;;16.96;34.96
39954;BME280;25631;51.516;-0.470;2023-04-28T12:45:13;100965.15;;;17.00;34.88
39954;BME280;25631;51.516;-0.470;2023-04-28T12:47:49;100968.29;;;16.98;35.49
39954;BME280;25631;51.516;-0.470;2023-04-28T12:50:26;100961.16;;;17.31;34.81
39954;BME280;25631;51.516;-0.470;2023-04-28T12:53:03;100956.98;;;17.50;33.93
39954;BME280;25631;51.516;-0.470;2023-04-28T12:55:39;100962.46;;;17.29;33.28
39954;BME280;25631;51.516;-0.470;2023-04-28T12:58:16;100966.41;;;17.46;32.94
39954;BME280;25631;51.516;-0.470;2023-04-28T13:00:52;100967.50;;;17.21;32.67
39954;BME280;25631;51.516;-0.470;2023-04-28T13:03:29;100968.72;;;17.27;32.64
39954;BME280;25631;51.516;-0.470;2023-04-28T13:06:05;100971.33;;;17.25;32.66
39954;BME280;25631;51.516;-0.470;2023-04-28T13:08:42;100976.70;;;17.51;32.92
39954;BME280;25631;51.516;-0.470;2023-04-28T13:11:18;100983.42;;;17.02;32.60
39954;BME280;25631;51.516;-0.470;2023-04-28T13:13:54;100988.32;;;16.99;31.85
39954;BME280;25631;51.516;-0.470;2023-04-28T13:16:31;100992.14;;;17.10;31.88
39954;BME280;25631;51.516;-0.470;2023-04-28T13:19:08;100994.63;;;16.89;32.39
39954;BME280;25631;51.516;-0.470;2023-04-28T13:21:45;100996.90;;;16.55;32.47
39954;BME280;25631;51.516;-0.470;2023-04-28T13:24:21;101000.40;;;16.91;32.42
39954;BME280;25631;51.516;-0.470;2023-04-28T13:26:58;101007.60;;;16.94;32.73
39954;BME280;25631;51.516;-0.470;2023-04-28T13:29:35;101009.02;;;17.04;32.95
39954;BME280;25631;51.516;-0.470;2023-04-28T13:32:11;101013.69;;;16.90;32.66
39954;BME280;25631;51.516;-0.470;2023-04-28T13:34:48;101013.01;;;16.99;31.96